sensor_id;sensor_type;location;lat;lon;timestamp;P1;durP1;ratioP1;P2;durP2;ratioP2
1585;SDS011;786;48.718;9.514;2023-02-11T00:01:30;47.95;;;26.85;;
1585;SDS011;786;48.718;9.514;2023-02-11T00:03:57;45.88;;;25.80;;
1585;SDS011;786;48.718;9.514;2023-02-11T00:06:27;45.97;;;24.10;;
1585;SDS011;786;48.718;9.514;2023-02-11T00:08:54;45.13;;;25.63;;
1585;SDS011;786;48.718;9.514;2023-02-11T00:11:21;47.17;;;24.25;;
1585;SDS011;786;48.718;9.514;2023-02-11T00:13:50;49.30;;;27.30;;
1585;SDS011;786;48.718;9.514;2023-02-11T00:16:18;43.92;;;23.58;;
1585;SDS011;786;48.718;9.514;2023-02-11T00:18:45;38.38;;;23.23;;
1585;SDS011;786;48.718;9.514;2023-02-11T00:21:12;39.30;;;21.33;;
1585;SDS011;786;48.718;9.514;2023-02-11T00:23:41;44.00;;;22.65;;
1585;SDS011;786;48.718;9.514;2023-02-11T00:26:10;39.38;;;21.88;;
1585;SDS011;786;48.718;9.514;2023-02-11T00:28:37;40.67;;;23.27;;
1585;SDS011;786;48.718;9.514;2023-02-11T00:31:03;48.40;;;23.30;;
1585;SDS011;786;48.718;9.514;2023-02-11T00:33:30;37.75;;;22.08;;
1585;SDS011;786;48.718;9.514;2023-02-11T00:35:56;45.97;;;26.30;;
1585;SDS011;786;48.718;9.514;2023-02-11T00:38:22;39.88;;;21.92;;
1585;SDS011;786;48.718;9.514;2023-02-11T00:40:50;46.92;;;25.10;;
1585;SDS011;786;48.718;9.514;2023-02-11T00:43:17;51.28;;;26.55;;
1585;SDS011;786;48.718;9.514;2023-02-11T00:45:43;55.38;;;24.98;;
1585;SDS011;786;48.718;9.514;2023-02-11T00:48:09;58.60;;;29.95;;
1585;SDS011;786;48.718;9.514;2023-02-11T00:50:36;107.75;;;54.90;;
1585;SDS011;786;48.718;9.514;2023-02-11T00:53:02;60.05;;;31.80;;
1585;SDS011;786;48.718;9.514;2023-02-11T00:55:28;48.63;;;26.13;;
1585;SDS011;786;48.718;9.514;2023-02-11T00:57:56;49.90;;;26.75;;
1585;SDS011;786;48.718;9.514;2023-02-11T01:00:24;44.38;;;25.40;;
1585;SDS011;786;48.718;9.514;2023-02-11T01:02:50;42.00;;;22.27;;
1585;SDS011;786;48.718;9.514;2023-02-11T01:05:17;44.25;;;22.52;;
1585;SDS011;786;48.718;9.514;2023-02-11T01:07:43;45.47;;;24.92;;
1585;SDS011;786;48.718;9.514;2023-02-11T01:10:10;44.63;;;23.60;;
1585;SDS011;786;48.718;9.514;2023-02-11T01:12:36;45.05;;;22.88;;
1585;SDS011;786;48.718;9.514;2023-02-11T01:15:04;42.67;;;24.67;;
1585;SDS011;786;48.718;9.514;2023-02-11T01:17:32;45.78;;;22.60;;
1585;SDS011;786;48.718;9.514;2023-02-11T01:20:00;45.03;;;22.42;;
1585;SDS011;786;48.718;9.514;2023-02-11T01:22:27;47.50;;;25.25;;
1585;SDS011;786;48.718;9.514;2023-02-11T01:24:53;40.45;;;22.73;;
1585;SDS011;786;48.718;9.514;2023-02-11T01:27:20;41.55;;;23.88;;
1585;SDS011;786;48.718;9.514;2023-02-11T01:29:46;42.55;;;24.63;;
1585;SDS011;786;48.718;9.514;2023-02-11T01:32:14;37.38;;;22.40;;
1585;SDS011;786;48.718;9.514;2023-02-11T01:34:40;37.25;;;20.42;;
1585;SDS011;786;48.718;9.514;2023-02-11T01:37:07;42.55;;;21.58;;
1585;SDS011;786;48.718;9.514;2023-02-11T01:39:33;38.50;;;20.58;;
1585;SDS011;786;48.718;9.514;2023-02-11T01:42:00;40.78;;;24.65;;
1585;SDS011;786;48.718;9.514;2023-02-11T01:44:27;44.00;;;21.88;;
1585;SDS011;786;48.718;9.514;2023-02-11T01:46:55;42.58;;;24.90;;
1585;SDS011;786;48.718;9.514;2023-02-11T01:49:24;47.38;;;23.58;;
1585;SDS011;786;48.718;9.514;2023-02-11T01:51:54;39.63;;;22.58;;
1585;SDS011;786;48.718;9.514;2023-02-11T01:54:23;41.70;;;22.05;;
1585;SDS011;786;48.718;9.514;2023-02-11T01:57:10;43.00;;;22.35;;
1585;SDS011;786;48.718;9.514;2023-02-11T01:59:49;38.75;;;21.70;;
1585;SDS011;786;48.718;9.514;2023-02-11T02:02:20;36.75;;;20.50;;
1585;SDS011;786;48.718;9.514;2023-02-11T02:04:51;48.53;;;23.95;;
1585;SDS011;786;48.718;9.514;2023-02-11T02:07:24;42.05;;;23.40;;
1585;SDS011;786;48.718;9.514;2023-02-11T02:09:54;46.17;;;22.85;;
1585;SDS011;786;48.718;9.514;2023-02-11T02:12:24;43.88;;;22.13;;
1585;SDS011;786;48.718;9.514;2023-02-11T02:14:50;44.40;;;26.33;;
1585;SDS011;786;48.718;9.514;2023-02-11T02:17:23;43.20;;;23.65;;
1585;SDS011;786;48.718;9.514;2023-02-11T02:20:06;44.00;;;25.17;;
1585;SDS011;786;48.718;9.514;2023-02-11T02:22:48;39.97;;;21.55;;
1585;SDS011;786;48.718;9.514;2023-02-11T02:25:38;40.63;;;22.67;;
1585;SDS011;786;48.718;9.514;2023-02-11T02:28:22;45.25;;;25.52;;
1585;SDS011;786;48.718;9.514;2023-02-11T02:31:07;44.58;;;24.58;;
1585;SDS011;786;48.718;9.514;2023-02-11T02:33:42;48.83;;;24.15;;
1585;SDS011;786;48.718;9.514;2023-02-11T02:36:13;49.67;;;25.90;;
1585;SDS011;786;48.718;9.514;2023-02-11T02:38:43;40.58;;;23.48;;
1585;SDS011;786;48.718;9.514;2023-02-11T02:41:13;42.15;;;23.05;;
1585;SDS011;786;48.718;9.514;2023-02-11T02:43:41;46.67;;;25.00;;
1585;SDS011;786;48.718;9.514;2023-02-11T02:46:10;43.05;;;24.55;;
1585;SDS011;786;48.718;9.514;2023-02-11T02:48:37;41.45;;;22.77;;
1585;SDS011;786;48.718;9.514;2023-02-11T02:51:07;44.15;;;24.33;;
1585;SDS011;786;48.718;9.514;2023-02-11T02:53:43;40.30;;;23.40;;
1585;SDS011;786;48.718;9.514;2023-02-11T02:56:17;40.95;;;23.25;;
1585;SDS011;786;48.718;9.514;2023-02-11T02:58:59;47.78;;;24.13;;
1585;SDS011;786;48.718;9.514;2023-02-11T03:01:41;43.90;;;22.73;;
1585;SDS011;786;48.718;9.514;2023-02-11T03:04:13;41.78;;;23.20;;
1585;SDS011;786;48.718;9.514;2023-02-11T03:06:47;43.10;;;23.77;;
1585;SDS011;786;48.718;9.514;2023-02-11T03:09:18;39.70;;;22.13;;
1585;SDS011;786;48.718;9.514;2023-02-11T03:11:47;46.00;;;23.42;;
1585;SDS011;786;48.718;9.514;2023-02-11T03:14:14;44.70;;;23.42;;
1585;SDS011;786;48.718;9.514;2023-02-11T03:16:42;43.35;;;24.42;;
1585;SDS011;786;48.718;9.514;2023-02-11T03:19:09;41.55;;;23.17;;
1585;SDS011;786;48.718;9.514;2023-02-11T03:21:38;40.65;;;21.92;;
1585;SDS011;786;48.718;9.514;2023-02-11T03:24:09;42.67;;;23.05;;
1585;SDS011;786;48.718;9.514;2023-02-11T03:26:39;41.45;;;22.27;;
1585;SDS011;786;48.718;9.514;2023-02-11T03:29:08;40.38;;;22.50;;
1585;SDS011;786;48.718;9.514;2023-02-11T03:31:39;38.60;;;21.80;;
1585;SDS011;786;48.718;9.514;2023-02-11T03:34:08;40.75;;;21.05;;
1585;SDS011;786;48.718;9.514;2023-02-11T03:36:38;38.60;;;21.05;;
1585;SDS011;786;48.718;9.514;2023-02-11T03:39:11;40.50;;;23.45;;
1585;SDS011;786;48.718;9.514;2023-02-11T03:41:39;38.47;;;22.10;;
1585;SDS011;786;48.718;9.514;2023-02-11T03:44:07;37.15;;;22.63;;
1585;SDS011;786;48.718;9.514;2023-02-11T03:46:35;44.80;;;23.25;;
1585;SDS011;786;48.718;9.514;2023-02-11T03:49:03;40.92;;;23.52;;
1585;SDS011;786;48.718;9.514;2023-02-11T03:51:32;36.33;;;20.15;;
1585;SDS011;786;48.718;9.514;2023-02-11T03:53:59;42.15;;;24.52;;
1585;SDS011;786;48.718;9.514;2023-02-11T03:56:29;39.55;;;22.30;;
1585;SDS011;786;48.718;9.514;2023-02-11T03:58:58;39.45;;;22.98;;
1585;SDS011;786;48.718;9.514;2023-02-11T04:01:25;44.17;;;23.60;;
1585;SDS011;786;48.718;9.514;2023-02-11T04:03:51;40.42;;;22.85;;
1585;SDS011;786;48.718;9.514;2023-02-11T04:06:18;37.75;;;23.48;;
1585;SDS011;786;48.718;9.514;2023-02-11T04:08:44;41.08;;;23.20;;
1585;SDS011;786;48.718;9.514;2023-02-11T04:11:10;43.95;;;25.75;;
1585;SDS011;786;48.718;9.514;2023-02-11T04:13:38;39.65;;;22.25;;
1585;SDS011;786;48.718;9.514;2023-02-11T04:16:04;48.92;;;27.90;;
1585;SDS011;786;48.718;9.514;2023-02-11T04:18:31;46.00;;;26.00;;
1585;SDS011;786;48.718;9.514;2023-02-11T04:20:57;43.05;;;24.13;;
1585;SDS011;786;48.718;9.514;2023-02-11T04:23:24;38.53;;;22.70;;
1585;SDS011;786;48.718;9.514;2023-02-11T04:25:50;44.78;;;25.98;;
1585;SDS011;786;48.718;9.514;2023-02-11T04:28:16;40.13;;;22.27;;
1585;SDS011;786;48.718;9.514;2023-02-11T04:30:44;39.55;;;23.05;;
1585;SDS011;786;48.718;9.514;2023-02-11T04:33:10;38.35;;;23.73;;
1585;SDS011;786;48.718;9.514;2023-02-11T04:35:37;35.08;;;19.88;;
1585;SDS011;786;48.718;9.514;2023-02-11T04:38:06;43.03;;;24.20;;
1585;SDS011;786;48.718;9.514;2023-02-11T04:40:32;40.92;;;22.33;;
1585;SDS011;786;48.718;9.514;2023-02-11T04:42:59;38.33;;;21.73;;
1585;SDS011;786;48.718;9.514;2023-02-11T04:45:25;40.75;;;24.30;;
1585;SDS011;786;48.718;9.514;2023-02-11T04:47:53;41.00;;;23.67;;
1585;SDS011;786;48.718;9.514;2023-02-11T04:50:19;37.65;;;23.48;;
1585;SDS011;786;48.718;9.514;2023-02-11T04:52:45;42.08;;;24.05;;
1585;SDS011;786;48.718;9.514;2023-02-11T04:55:12;40.60;;;23.52;;
1585;SDS011;786;48.718;9.514;2023-02-11T04:57:38;41.92;;;22.23;;
1585;SDS011;786;48.718;9.514;2023-02-11T05:00:05;40.55;;;21.38;;
1585;SDS011;786;48.718;9.514;2023-02-11T05:02:33;38.63;;;24.55;;
1585;SDS011;786;48.718;9.514;2023-02-11T05:05:01;41.15;;;22.20;;
1585;SDS011;786;48.718;9.514;2023-02-11T05:07:28;39.58;;;21.77;;
1585;SDS011;786;48.718;9.514;2023-02-11T05:09:54;41.15;;;22.58;;
1585;SDS011;786;48.718;9.514;2023-02-11T05:12:21;42.72;;;23.60;;
1585;SDS011;786;48.718;9.514;2023-02-11T05:14:47;39.15;;;24.02;;
1585;SDS011;786;48.718;9.514;2023-02-11T05:17:13;42.00;;;23.65;;
1585;SDS011;786;48.718;9.514;2023-02-11T05:19:40;38.45;;;22.90;;
1585;SDS011;786;48.718;9.514;2023-02-11T05:22:08;40.67;;;22.65;;
1585;SDS011;786;48.718;9.514;2023-02-11T05:24:34;44.35;;;23.10;;
1585;SDS011;786;48.718;9.514;2023-02-11T05:27:01;38.38;;;23.55;;
1585;SDS011;786;48.718;9.514;2023-02-11T05:29:27;38.28;;;22.15;;
1585;SDS011;786;48.718;9.514;2023-02-11T05:31:54;39.45;;;24.90;;
1585;SDS011;786;48.718;9.514;2023-02-11T05:34:20;38.75;;;22.88;;
1585;SDS011;786;48.718;9.514;2023-02-11T05:36:46;41.42;;;25.95;;
1585;SDS011;786;48.718;9.514;2023-02-11T05:39:14;37.70;;;21.40;;
1585;SDS011;786;48.718;9.514;2023-02-11T05:41:40;36.53;;;21.80;;
1585;SDS011;786;48.718;9.514;2023-02-11T05:44:07;38.35;;;23.35;;
1585;SDS011;786;48.718;9.514;2023-02-11T05:46:34;37.63;;;22.15;;
1585;SDS011;786;48.718;9.514;2023-02-11T05:49:00;41.25;;;23.65;;
1585;SDS011;786;48.718;9.514;2023-02-11T05:51:27;41.22;;;22.40;;
1585;SDS011;786;48.718;9.514;2023-02-11T05:53:53;41.53;;;24.08;;
1585;SDS011;786;48.718;9.514;2023-02-11T05:56:22;39.25;;;22.77;;
1585;SDS011;786;48.718;9.514;2023-02-11T05:58:48;39.17;;;22.15;;
1585;SDS011;786;48.718;9.514;2023-02-11T06:01:15;48.10;;;28.52;;
1585;SDS011;786;48.718;9.514;2023-02-11T06:03:41;35.78;;;21.02;;
1585;SDS011;786;48.718;9.514;2023-02-11T06:08:43;36.65;;;22.67;;
1585;SDS011;786;48.718;9.514;2023-02-11T06:11:09;39.25;;;23.63;;
1585;SDS011;786;48.718;9.514;2023-02-11T06:13:37;39.50;;;23.45;;
1585;SDS011;786;48.718;9.514;2023-02-11T06:16:04;41.35;;;23.40;;
1585;SDS011;786;48.718;9.514;2023-02-11T06:18:30;38.67;;;23.88;;
1585;SDS011;786;48.718;9.514;2023-02-11T06:20:57;42.35;;;24.08;;
1585;SDS011;786;48.718;9.514;2023-02-11T06:23:24;40.78;;;21.60;;
1585;SDS011;786;48.718;9.514;2023-02-11T06:25:50;42.83;;;24.10;;
1585;SDS011;786;48.718;9.514;2023-02-11T06:28:17;38.63;;;21.85;;
1585;SDS011;786;48.718;9.514;2023-02-11T06:30:44;34.72;;;20.90;;
1585;SDS011;786;48.718;9.514;2023-02-11T06:33:11;37.50;;;22.55;;
1585;SDS011;786;48.718;9.514;2023-02-11T06:35:37;36.95;;;21.35;;
1585;SDS011;786;48.718;9.514;2023-02-11T06:38:04;37.63;;;22.85;;
1585;SDS011;786;48.718;9.514;2023-02-11T06:40:31;41.45;;;24.33;;
1585;SDS011;786;48.718;9.514;2023-02-11T06:42:57;38.95;;;22.40;;
1585;SDS011;786;48.718;9.514;2023-02-11T06:45:23;34.92;;;20.67;;
1585;SDS011;786;48.718;9.514;2023-02-11T06:47:51;40.00;;;23.83;;
1585;SDS011;786;48.718;9.514;2023-02-11T06:50:18;35.42;;;20.80;;
1585;SDS011;786;48.718;9.514;2023-02-11T06:52:44;38.42;;;23.88;;
1585;SDS011;786;48.718;9.514;2023-02-11T06:55:10;37.65;;;24.65;;
1585;SDS011;786;48.718;9.514;2023-02-11T06:57:37;39.47;;;22.15;;
1585;SDS011;786;48.718;9.514;2023-02-11T07:00:03;39.65;;;25.23;;
1585;SDS011;786;48.718;9.514;2023-02-11T07:02:30;38.08;;;22.77;;
1585;SDS011;786;48.718;9.514;2023-02-11T07:04:58;37.53;;;22.45;;
1585;SDS011;786;48.718;9.514;2023-02-11T07:07:24;35.67;;;24.70;;
1585;SDS011;786;48.718;9.514;2023-02-11T07:09:52;42.67;;;25.33;;
1585;SDS011;786;48.718;9.514;2023-02-11T07:12:18;33.60;;;22.95;;
1585;SDS011;786;48.718;9.514;2023-02-11T07:14:45;37.72;;;24.42;;
1585;SDS011;786;48.718;9.514;2023-02-11T07:17:11;43.42;;;25.67;;
1585;SDS011;786;48.718;9.514;2023-02-11T07:19:37;39.28;;;22.70;;
1585;SDS011;786;48.718;9.514;2023-02-11T07:22:05;42.53;;;24.55;;
1585;SDS011;786;48.718;9.514;2023-02-11T07:24:31;47.65;;;23.48;;
1585;SDS011;786;48.718;9.514;2023-02-11T07:26:58;42.88;;;25.83;;
1585;SDS011;786;48.718;9.514;2023-02-11T07:29:24;45.20;;;27.52;;
1585;SDS011;786;48.718;9.514;2023-02-11T07:31:51;40.22;;;24.25;;
1585;SDS011;786;48.718;9.514;2023-02-11T07:34:17;43.28;;;25.77;;
1585;SDS011;786;48.718;9.514;2023-02-11T07:36:43;43.03;;;25.65;;
1585;SDS011;786;48.718;9.514;2023-02-11T07:39:11;45.17;;;25.02;;
1585;SDS011;786;48.718;9.514;2023-02-11T07:41:37;40.08;;;23.92;;
1585;SDS011;786;48.718;9.514;2023-02-11T07:44:04;49.83;;;27.30;;
1585;SDS011;786;48.718;9.514;2023-02-11T07:46:30;43.88;;;24.73;;
1585;SDS011;786;48.718;9.514;2023-02-11T07:48:58;43.45;;;29.38;;
1585;SDS011;786;48.718;9.514;2023-02-11T07:51:25;44.40;;;27.98;;
1585;SDS011;786;48.718;9.514;2023-02-11T07:53:53;41.78;;;28.58;;
1585;SDS011;786;48.718;9.514;2023-02-11T07:56:21;42.88;;;27.48;;
1585;SDS011;786;48.718;9.514;2023-02-11T07:58:48;48.22;;;28.80;;
1585;SDS011;786;48.718;9.514;2023-02-11T08:01:15;44.25;;;28.02;;
1585;SDS011;786;48.718;9.514;2023-02-11T08:03:43;43.38;;;27.20;;
1585;SDS011;786;48.718;9.514;2023-02-11T08:06:10;41.97;;;28.10;;
1585;SDS011;786;48.718;9.514;2023-02-11T08:08:37;38.20;;;26.27;;
1585;SDS011;786;48.718;9.514;2023-02-11T08:11:04;42.05;;;28.75;;
1585;SDS011;786;48.718;9.514;2023-02-11T08:13:34;42.83;;;25.42;;
1585;SDS011;786;48.718;9.514;2023-02-11T08:16:00;40.28;;;26.45;;
1585;SDS011;786;48.718;9.514;2023-02-11T08:18:27;43.35;;;28.42;;
1585;SDS011;786;48.718;9.514;2023-02-11T08:20:53;44.10;;;29.45;;
1585;SDS011;786;48.718;9.514;2023-02-11T08:23:20;39.50;;;26.42;;
1585;SDS011;786;48.718;9.514;2023-02-11T08:25:46;39.80;;;26.40;;
1585;SDS011;786;48.718;9.514;2023-02-11T08:28:12;38.70;;;26.83;;
1585;SDS011;786;48.718;9.514;2023-02-11T08:30:40;36.30;;;25.20;;
1585;SDS011;786;48.718;9.514;2023-02-11T08:33:06;39.70;;;26.30;;
1585;SDS011;786;48.718;9.514;2023-02-11T08:35:33;40.55;;;27.13;;
1585;SDS011;786;48.718;9.514;2023-02-11T08:38:00;44.97;;;28.05;;
1585;SDS011;786;48.718;9.514;2023-02-11T08:40:26;40.05;;;25.27;;
1585;SDS011;786;48.718;9.514;2023-02-11T08:42:52;36.80;;;25.58;;
1585;SDS011;786;48.718;9.514;2023-02-11T08:45:19;32.47;;;22.00;;
1585;SDS011;786;48.718;9.514;2023-02-11T08:47:47;38.13;;;26.98;;
1585;SDS011;786;48.718;9.514;2023-02-11T08:50:13;42.17;;;26.65;;
1585;SDS011;786;48.718;9.514;2023-02-11T08:52:39;36.95;;;26.13;;
1585;SDS011;786;48.718;9.514;2023-02-11T08:55:07;36.42;;;23.52;;
1585;SDS011;786;48.718;9.514;2023-02-11T08:57:33;39.05;;;26.20;;
1585;SDS011;786;48.718;9.514;2023-02-11T08:59:59;46.42;;;31.45;;
1585;SDS011;786;48.718;9.514;2023-02-11T09:02:26;36.97;;;26.35;;
1585;SDS011;786;48.718;9.514;2023-02-11T09:04:55;35.78;;;25.30;;
1585;SDS011;786;48.718;9.514;2023-02-11T09:07:21;35.35;;;24.42;;
1585;SDS011;786;48.718;9.514;2023-02-11T09:09:48;34.03;;;23.63;;
1585;SDS011;786;48.718;9.514;2023-02-11T09:12:14;34.72;;;24.80;;
1585;SDS011;786;48.718;9.514;2023-02-11T09:14:40;29.55;;;22.98;;
1585;SDS011;786;48.718;9.514;2023-02-11T09:17:07;32.50;;;23.63;;
1585;SDS011;786;48.718;9.514;2023-02-11T09:19:33;31.63;;;23.70;;
1585;SDS011;786;48.718;9.514;2023-02-11T09:22:01;30.63;;;25.10;;
1585;SDS011;786;48.718;9.514;2023-02-11T09:24:27;32.63;;;26.60;;
1585;SDS011;786;48.718;9.514;2023-02-11T09:26:54;28.23;;;23.55;;
1585;SDS011;786;48.718;9.514;2023-02-11T09:29:20;29.58;;;22.70;;
1585;SDS011;786;48.718;9.514;2023-02-11T09:31:47;26.45;;;23.30;;
1585;SDS011;786;48.718;9.514;2023-02-11T09:34:13;29.13;;;24.70;;
1585;SDS011;786;48.718;9.514;2023-02-11T09:36:40;29.00;;;24.80;;
1585;SDS011;786;48.718;9.514;2023-02-11T09:39:08;30.15;;;25.42;;
1585;SDS011;786;48.718;9.514;2023-02-11T09:41:58;30.05;;;26.92;;
1585;SDS011;786;48.718;9.514;2023-02-11T09:44:33;30.30;;;25.42;;
1585;SDS011;786;48.718;9.514;2023-02-11T09:47:01;28.58;;;25.70;;
1585;SDS011;786;48.718;9.514;2023-02-11T09:49:32;28.02;;;25.10;;
1585;SDS011;786;48.718;9.514;2023-02-11T09:52:02;31.25;;;28.20;;
1585;SDS011;786;48.718;9.514;2023-02-11T09:54:33;28.85;;;26.05;;
1585;SDS011;786;48.718;9.514;2023-02-11T09:57:02;30.40;;;27.38;;
1585;SDS011;786;48.718;9.514;2023-02-11T09:59:30;34.38;;;30.90;;
1585;SDS011;786;48.718;9.514;2023-02-11T10:01:56;30.77;;;27.65;;
1585;SDS011;786;48.718;9.514;2023-02-11T10:04:29;30.52;;;27.45;;
1585;SDS011;786;48.718;9.514;2023-02-11T10:07:06;36.67;;;33.08;;
1585;SDS011;786;48.718;9.514;2023-02-11T10:09:48;29.77;;;26.60;;
1585;SDS011;786;48.718;9.514;2023-02-11T10:12:26;27.98;;;24.98;;
1585;SDS011;786;48.718;9.514;2023-02-11T10:15:07;31.77;;;28.48;;
1585;SDS011;786;48.718;9.514;2023-02-11T10:17:40;31.25;;;27.98;;
1585;SDS011;786;48.718;9.514;2023-02-11T10:20:14;30.85;;;27.50;;
1585;SDS011;786;48.718;9.514;2023-02-11T10:22:49;34.15;;;29.48;;
1585;SDS011;786;48.718;9.514;2023-02-11T10:25:21;33.05;;;28.15;;
1585;SDS011;786;48.718;9.514;2023-02-11T10:27:48;28.60;;;25.50;;
1585;SDS011;786;48.718;9.514;2023-02-11T10:30:18;34.13;;;27.38;;
1585;SDS011;786;48.718;9.514;2023-02-11T10:32:48;35.50;;;28.77;;
1585;SDS011;786;48.718;9.514;2023-02-11T10:35:18;34.58;;;27.63;;
1585;SDS011;786;48.718;9.514;2023-02-11T10:37:46;31.33;;;25.42;;
1585;SDS011;786;48.718;9.514;2023-02-11T10:40:13;28.52;;;22.88;;
1585;SDS011;786;48.718;9.514;2023-02-11T10:42:42;28.52;;;23.75;;
1585;SDS011;786;48.718;9.514;2023-02-11T10:45:14;29.85;;;25.92;;
1585;SDS011;786;48.718;9.514;2023-02-11T10:47:42;25.75;;;23.00;;
1585;SDS011;786;48.718;9.514;2023-02-11T10:52:47;26.52;;;23.55;;
1585;SDS011;786;48.718;9.514;2023-02-11T10:55:14;25.60;;;22.45;;
1585;SDS011;786;48.718;9.514;2023-02-11T10:57:48;28.70;;;24.65;;
1585;SDS011;786;48.718;9.514;2023-02-11T11:00:26;26.42;;;23.73;;
1585;SDS011;786;48.718;9.514;2023-02-11T11:02:58;29.23;;;26.17;;
1585;SDS011;786;48.718;9.514;2023-02-11T11:05:27;21.67;;;19.48;;
1585;SDS011;786;48.718;9.514;2023-02-11T11:07:56;26.50;;;23.95;;
1585;SDS011;786;48.718;9.514;2023-02-11T11:10:34;25.45;;;22.98;;
1585;SDS011;786;48.718;9.514;2023-02-11T11:13:14;26.25;;;23.70;;
1585;SDS011;786;48.718;9.514;2023-02-11T11:15:51;26.15;;;23.60;;
1585;SDS011;786;48.718;9.514;2023-02-11T11:18:33;24.30;;;21.90;;
1585;SDS011;786;48.718;9.514;2023-02-11T11:20:59;27.83;;;25.33;;
1585;SDS011;786;48.718;9.514;2023-02-11T11:23:27;25.38;;;22.85;;
1585;SDS011;786;48.718;9.514;2023-02-11T11:25:59;24.38;;;22.00;;
1585;SDS011;786;48.718;9.514;2023-02-11T11:28:29;25.08;;;22.58;;
1585;SDS011;786;48.718;9.514;2023-02-11T11:30:57;29.20;;;26.35;;
1585;SDS011;786;48.718;9.514;2023-02-11T11:33:25;25.17;;;22.67;;
1585;SDS011;786;48.718;9.514;2023-02-11T11:35:54;23.20;;;21.00;;
1585;SDS011;786;48.718;9.514;2023-02-11T11:38:23;21.65;;;19.73;;
1585;SDS011;786;48.718;9.514;2023-02-11T11:46:41;24.52;;;22.25;;
1585;SDS011;786;48.718;9.514;2023-02-11T11:49:13;24.60;;;22.20;;
1585;SDS011;786;48.718;9.514;2023-02-11T11:51:46;22.98;;;20.77;;
1585;SDS011;786;48.718;9.514;2023-02-11T11:54:17;23.85;;;21.45;;
1585;SDS011;786;48.718;9.514;2023-02-11T11:56:46;23.77;;;21.48;;
1585;SDS011;786;48.718;9.514;2023-02-11T11:59:17;22.98;;;20.90;;
1585;SDS011;786;48.718;9.514;2023-02-11T12:01:47;21.48;;;19.38;;
1585;SDS011;786;48.718;9.514;2023-02-11T12:04:24;22.10;;;19.75;;
1585;SDS011;786;48.718;9.514;2023-02-11T12:07:15;19.42;;;17.73;;
1585;SDS011;786;48.718;9.514;2023-02-11T12:09:52;18.98;;;17.23;;
1585;SDS011;786;48.718;9.514;2023-02-11T12:12:31;21.35;;;19.33;;
1585;SDS011;786;48.718;9.514;2023-02-11T12:15:07;19.95;;;18.08;;
1585;SDS011;786;48.718;9.514;2023-02-11T12:17:44;19.65;;;17.80;;
1585;SDS011;786;48.718;9.514;2023-02-11T12:20:25;19.17;;;16.80;;
1585;SDS011;786;48.718;9.514;2023-02-11T12:23:04;21.13;;;19.20;;
1585;SDS011;786;48.718;9.514;2023-02-11T12:25:41;18.42;;;16.65;;
1585;SDS011;786;48.718;9.514;2023-02-11T12:28:14;19.92;;;17.92;;
1585;SDS011;786;48.718;9.514;2023-02-11T12:31:00;18.23;;;16.50;;
1585;SDS011;786;48.718;9.514;2023-02-11T12:33:37;19.90;;;17.90;;
1585;SDS011;786;48.718;9.514;2023-02-11T12:36:14;17.52;;;15.73;;
1585;SDS011;786;48.718;9.514;2023-02-11T12:41:39;15.55;;;14.00;;
1585;SDS011;786;48.718;9.514;2023-02-11T12:44:35;12.55;;;11.25;;
1585;SDS011;786;48.718;9.514;2023-02-11T12:47:10;15.27;;;13.77;;
1585;SDS011;786;48.718;9.514;2023-02-11T12:49:47;12.98;;;10.93;;
1585;SDS011;786;48.718;9.514;2023-02-11T12:52:22;14.27;;;12.90;;
1585;SDS011;786;48.718;9.514;2023-02-11T12:54:55;13.07;;;11.82;;
1585;SDS011;786;48.718;9.514;2023-02-11T12:57:23;14.63;;;13.27;;
1585;SDS011;786;48.718;9.514;2023-02-11T12:59:53;15.82;;;14.13;;
1585;SDS011;786;48.718;9.514;2023-02-11T13:02:27;15.43;;;14.13;;
1585;SDS011;786;48.718;9.514;2023-02-11T13:04:59;13.30;;;12.00;;
1585;SDS011;786;48.718;9.514;2023-02-11T13:07:28;14.40;;;13.00;;
1585;SDS011;786;48.718;9.514;2023-02-11T13:10:08;14.90;;;13.40;;
1585;SDS011;786;48.718;9.514;2023-02-11T13:12:46;13.80;;;12.38;;
1585;SDS011;786;48.718;9.514;2023-02-11T13:15:31;12.45;;;11.15;;
1585;SDS011;786;48.718;9.514;2023-02-11T13:17:59;15.25;;;13.73;;
1585;SDS011;786;48.718;9.514;2023-02-11T13:20:34;13.15;;;11.23;;
1585;SDS011;786;48.718;9.514;2023-02-11T13:23:06;14.93;;;13.43;;
1585;SDS011;786;48.718;9.514;2023-02-11T13:25:39;15.27;;;13.65;;
1585;SDS011;786;48.718;9.514;2023-02-11T13:28:13;18.42;;;13.25;;
1585;SDS011;786;48.718;9.514;2023-02-11T13:30:45;14.50;;;12.68;;
1585;SDS011;786;48.718;9.514;2023-02-11T13:33:20;13.07;;;11.77;;
1585;SDS011;786;48.718;9.514;2023-02-11T13:36:09;13.38;;;12.07;;
1585;SDS011;786;48.718;9.514;2023-02-11T13:38:37;16.75;;;15.13;;
1585;SDS011;786;48.718;9.514;2023-02-11T13:41:05;13.90;;;12.50;;
1585;SDS011;786;48.718;9.514;2023-02-11T13:43:40;13.65;;;12.02;;
1585;SDS011;786;48.718;9.514;2023-02-11T13:46:07;14.80;;;12.35;;
1585;SDS011;786;48.718;9.514;2023-02-11T13:48:37;13.85;;;11.55;;
1585;SDS011;786;48.718;9.514;2023-02-11T13:51:05;15.30;;;13.68;;
1585;SDS011;786;48.718;9.514;2023-02-11T13:53:43;13.52;;;12.13;;
1585;SDS011;786;48.718;9.514;2023-02-11T13:56:11;14.20;;;12.73;;
1585;SDS011;786;48.718;9.514;2023-02-11T13:58:48;14.73;;;13.20;;
1585;SDS011;786;48.718;9.514;2023-02-11T14:01:31;13.60;;;12.15;;
1585;SDS011;786;48.718;9.514;2023-02-11T14:04:17;14.75;;;11.75;;
1585;SDS011;786;48.718;9.514;2023-02-11T14:07:24;13.93;;;12.43;;
1585;SDS011;786;48.718;9.514;2023-02-11T14:13:21;13.23;;;11.13;;
1585;SDS011;786;48.718;9.514;2023-02-11T14:15:48;13.77;;;12.32;;
1585;SDS011;786;48.718;9.514;2023-02-11T14:18:35;13.40;;;12.00;;
1585;SDS011;786;48.718;9.514;2023-02-11T14:21:08;14.48;;;11.85;;
1585;SDS011;786;48.718;9.514;2023-02-11T14:23:37;14.00;;;10.73;;
1585;SDS011;786;48.718;9.514;2023-02-11T14:26:22;14.95;;;13.43;;
1585;SDS011;786;48.718;9.514;2023-02-11T14:28:53;12.38;;;11.05;;
1585;SDS011;786;48.718;9.514;2023-02-11T14:31:25;11.93;;;10.55;;
1585;SDS011;786;48.718;9.514;2023-02-11T14:34:15;12.73;;;11.40;;
1585;SDS011;786;48.718;9.514;2023-02-11T14:37:03;14.40;;;12.93;;
1585;SDS011;786;48.718;9.514;2023-02-11T14:39:41;11.52;;;9.68;;
1585;SDS011;786;48.718;9.514;2023-02-11T14:42:14;11.88;;;10.18;;
1585;SDS011;786;48.718;9.514;2023-02-11T14:44:43;13.23;;;11.35;;
1585;SDS011;786;48.718;9.514;2023-02-11T14:47:10;12.52;;;11.05;;
1585;SDS011;786;48.718;9.514;2023-02-11T14:49:38;14.13;;;10.90;;
1585;SDS011;786;48.718;9.514;2023-02-11T14:52:08;18.45;;;16.65;;
1585;SDS011;786;48.718;9.514;2023-02-11T14:54:42;11.98;;;10.30;;
1585;SDS011;786;48.718;9.514;2023-02-11T14:57:11;13.43;;;10.95;;
1585;SDS011;786;48.718;9.514;2023-02-11T14:59:39;13.48;;;10.68;;
1585;SDS011;786;48.718;9.514;2023-02-11T15:02:18;13.43;;;10.90;;
1585;SDS011;786;48.718;9.514;2023-02-11T15:04:46;14.80;;;12.95;;
1585;SDS011;786;48.718;9.514;2023-02-11T15:07:14;16.13;;;12.05;;
1585;SDS011;786;48.718;9.514;2023-02-11T15:09:41;13.55;;;11.95;;
1585;SDS011;786;48.718;9.514;2023-02-11T15:12:10;17.73;;;12.82;;
1585;SDS011;786;48.718;9.514;2023-02-11T15:14:44;17.30;;;12.52;;
1585;SDS011;786;48.718;9.514;2023-02-11T15:17:12;13.52;;;10.95;;
1585;SDS011;786;48.718;9.514;2023-02-11T15:19:40;18.15;;;13.35;;
1585;SDS011;786;48.718;9.514;2023-02-11T15:22:15;18.75;;;15.32;;
1585;SDS011;786;48.718;9.514;2023-02-11T15:24:44;14.95;;;11.63;;
1585;SDS011;786;48.718;9.514;2023-02-11T15:27:11;14.20;;;11.75;;
1585;SDS011;786;48.718;9.514;2023-02-11T15:29:40;17.50;;;11.95;;
1585;SDS011;786;48.718;9.514;2023-02-11T15:32:12;18.65;;;15.00;;
1585;SDS011;786;48.718;9.514;2023-02-11T15:34:40;18.70;;;13.70;;